createdAt,value
2023-04-02T00:01:39.160Z,56.53
2023-04-02T00:04:25.756Z,53.85
2023-04-02T00:07:33.118Z,58.28
2023-04-02T00:10:28.552Z,59.15
2023-04-02T00:13:13.443Z,46.70
2023-04-02T00:16:00.138Z,50.55
2023-04-02T00:18:49.608Z,57.80
2023-04-02T00:21:38.798Z,70.68
2023-04-02T00:24:24.735Z,69.75
2023-04-02T00:27:14.116Z,76.32
2023-04-02T00:29:59.302Z,70.38
2023-04-02T00:32:45.083Z,64.75
2023-04-02T00:35:30.533Z,64.60
2023-04-02T00:38:27.669Z,55.15
2023-04-02T00:41:19.006Z,51.67
2023-04-02T00:44:05.419Z,46.67
2023-04-02T00:46:51.021Z,52.38
2023-04-02T00:49:37.899Z,50.58
2023-04-02T00:52:27.282Z,44.75
2023-04-02T00:55:20.855Z,41.33
2023-04-02T00:58:31.904Z,41.65
2023-04-02T01:01:19.340Z,47.17
2023-04-02T01:04:05.578Z,42.80
2023-04-02T01:06:52.861Z,38.13
2023-04-02T01:09:54.712Z,33.20
2023-04-02T01:12:53.935Z,29.38
2023-04-02T01:16:06.287Z,36.53
2023-04-02T01:19:09.827Z,30.67
2023-04-02T01:22:17.870Z,31.02
2023-04-02T01:25:05.870Z,28.55
2023-04-02T01:27:57.975Z,26.63
2023-04-02T01:30:45.242Z,28.23
2023-04-02T01:33:33.601Z,29.23
2023-04-02T01:36:44.193Z,27.25
2023-04-02T01:39:54.033Z,25.30
2023-04-02T01:43:01.470Z,22.58
2023-04-02T01:45:46.808Z,24.23
2023-04-02T01:48:31.565Z,24.85
2023-04-02T01:51:28.156Z,25.27
2023-04-02T01:54:16.047Z,27.02
2023-04-02T01:57:01.119Z,25.80
2023-04-02T01:59:46.130Z,25.25
2023-04-02T02:02:31.251Z,24.85
2023-04-02T02:05:19.455Z,27.98
2023-04-02T02:08:18.922Z,27.58
2023-04-02T02:11:05.173Z,26.02
2023-04-02T02:13:54.960Z,25.17
2023-04-02T02:16:42.993Z,24.00
2023-04-02T02:19:48.482Z,24.08
2023-04-02T02:22:37.001Z,22.50
2023-04-02T02:25:30.421Z,26.13
2023-04-02T02:28:22.823Z,27.05
2023-04-02T02:31:17.951Z,28.98
2023-04-02T02:34:16.212Z,25.33
2023-04-02T02:37:12.818Z,27.08
2023-04-02T02:40:00.796Z,24.30
2023-04-02T02:42:56.442Z,27.08
2023-04-02T02:45:43.682Z,31.60
2023-04-02T02:48:37.136Z,31.55
2023-04-02T02:51:40.116Z,40.15
2023-04-02T02:54:29.651Z,38.47
2023-04-02T02:57:22.649Z,34.75
2023-04-02T03:00:15.277Z,33.08
2023-04-02T03:03:07.160Z,30.70
2023-04-02T03:06:02.228Z,29.38
2023-04-02T03:09:06.265Z,27.65
2023-04-02T03:12:16.302Z,25.95
2023-04-02T03:15:42.162Z,31.60
2023-04-02T03:19:05.438Z,30.50
2023-04-02T03:22:02.533Z,28.38
2023-04-02T03:25:01.507Z,25.58
2023-04-02T03:27:51.285Z,29.63
2023-04-02T03:31:06.513Z,26.77
2023-04-02T03:34:00.840Z,26.02
2023-04-02T03:36:56.129Z,28.27
2023-04-02T03:39:46.063Z,29.55
2023-04-02T03:42:44.914Z,22.67
2023-04-02T03:45:40.567Z,25.90
2023-04-02T03:48:28.259Z,26.60
2023-04-02T03:51:26.236Z,25.95
2023-04-02T03:54:15.458Z,31.67
2023-04-02T03:57:01.154Z,31.20
2023-04-02T03:59:56.844Z,33.65
2023-04-02T04:02:51.858Z,37.75
2023-04-02T04:05:47.864Z,52.28
2023-04-02T04:08:41.971Z,48.75
2023-04-02T04:11:33.326Z,46.28
2023-04-02T04:14:27.522Z,41.83
2023-04-02T04:17:23.390Z,42.30
2023-04-02T04:20:16.983Z,43.35
2023-04-02T04:23:14.439Z,40.70
2023-04-02T04:26:19.095Z,39.97
2023-04-02T04:29:29.044Z,41.40
2023-04-02T04:32:33.421Z,38.30
2023-04-02T04:35:30.611Z,32.70
2023-04-02T04:38:27.075Z,35.28
2023-04-02T04:41:21.974Z,35.60
2023-04-02T04:44:39.329Z,36.55
2023-04-02T04:47:39.745Z,46.60
2023-04-02T04:50:37.011Z,88.35
2023-04-02T04:53:24.963Z,62.47
2023-04-02T04:56:19.342Z,60.35
2023-04-02T04:59:23.001Z,43.65
2023-04-02T05:02:15.860Z,43.95
2023-04-02T05:05:03.051Z,45.17
2023-04-02T05:07:52.423Z,55.22
2023-04-02T05:10:50.396Z,43.42
2023-04-02T05:14:12.735Z,42.92
2023-04-02T05:17:08.607Z,40.58
2023-04-02T05:20:21.053Z,44.83
2023-04-02T05:23:19.287Z,39.83
2023-04-02T05:26:36.117Z,38.50
2023-04-02T05:29:42.595Z,38.40
2023-04-02T05:32:34.265Z,33.17
2023-04-02T05:35:24.970Z,28.10
2023-04-02T05:38:23.335Z,24.75
2023-04-02T05:41:36.008Z,20.88
2023-04-02T05:44:22.408Z,19.92
2023-04-02T05:47:18.883Z,16.73
2023-04-02T05:50:08.007Z,15.57
2023-04-02T05:53:09.086Z,14.73
2023-04-02T05:56:13.391Z,12.50
2023-04-02T05:59:15.663Z,13.98
2023-04-02T06:02:10.865Z,12.45
2023-04-02T06:05:06.321Z,13.20
2023-04-02T06:08:07.105Z,11.40
2023-04-02T06:11:00.902Z,14.60
2023-04-02T06:13:45.939Z,15.10
2023-04-02T06:16:33.804Z,20.92
2023-04-02T06:19:24.602Z,18.08
2023-04-02T06:22:39.276Z,17.95
2023-04-02T06:25:30.657Z,15.98
2023-04-02T06:28:53.227Z,17.45
2023-04-02T06:31:53.573Z,12.65
2023-04-02T06:34:41.799Z,14.43
2023-04-02T06:37:37.009Z,13.93
2023-04-02T06:40:33.016Z,20.40
2023-04-02T06:43:40.474Z,24.35
2023-04-02T06:46:53.367Z,24.83
2023-04-02T06:50:11.461Z,28.67
2023-04-02T06:53:00.671Z,28.45
2023-04-02T06:56:00.735Z,24.15
2023-04-02T06:58:48.268Z,34.97
2023-04-02T07:01:39.770Z,26.27
2023-04-02T07:04:25.404Z,27.95
2023-04-02T07:07:11.470Z,27.65
2023-04-02T07:10:00.242Z,28.92
2023-04-02T07:12:45.278Z,31.23
2023-04-02T07:15:30.266Z,27.20
2023-04-02T07:18:31.840Z,30.35
2023-04-02T07:21:19.316Z,34.03
2023-04-02T07:24:04.784Z,32.85
2023-04-02T07:26:50.012Z,32.53
2023-04-02T07:29:34.768Z,33.72
2023-04-02T07:32:20.177Z,40.10
2023-04-02T07:35:05.630Z,36.83
2023-04-02T07:37:52.201Z,34.78
2023-04-02T07:40:38.078Z,40.20
2023-04-02T07:43:23.024Z,36.33
2023-04-02T07:46:08.328Z,37.70
2023-04-02T07:48:52.826Z,36.40
2023-04-02T07:51:37.660Z,45.08
2023-04-02T07:54:22.588Z,39.97
2023-04-02T07:57:07.488Z,39.47
2023-04-02T07:59:55.812Z,39.55
2023-04-02T08:02:41.191Z,32.78
2023-04-02T08:05:27.135Z,36.63
2023-04-02T08:08:11.944Z,31.15
2023-04-02T08:10:57.104Z,31.33
2023-04-02T08:13:42.654Z,29.02
2023-04-02T08:16:27.473Z,33.35
2023-04-02T08:19:12.412Z,29.02
2023-04-02T08:21:57.139Z,25.15
2023-04-02T08:24:41.741Z,30.50
2023-04-02T08:30:12.494Z,32.20
2023-04-02T08:32:57.233Z,29.08
2023-04-02T08:35:42.125Z,30.02
2023-04-02T08:38:26.617Z,25.95
2023-04-02T08:41:22.525Z,26.10
2023-04-02T08:44:28.939Z,24.20
2023-04-02T08:47:14.837Z,24.20
2023-04-02T08:50:03.782Z,27.67
2023-04-02T08:52:48.713Z,24.85
2023-04-02T08:55:47.144Z,24.88
2023-04-02T08:58:42.342Z,24.48
2023-04-02T09:01:38.787Z,24.08
2023-04-02T09:04:25.469Z,25.48
2023-04-02T09:07:16.372Z,22.15
2023-04-02T09:10:01.174Z,20.80
2023-04-02T09:12:51.418Z,25.58
2023-04-02T09:15:36.119Z,20.55
2023-04-02T09:18:21.136Z,19.38
2023-04-02T09:21:27.669Z,17.63
2023-04-02T09:24:15.358Z,17.17
2023-04-02T09:27:00.537Z,17.20
2023-04-02T09:29:48.948Z,15.35
2023-04-02T09:32:45.991Z,16.40
2023-04-02T09:35:33.428Z,16.15
2023-04-02T09:38:22.441Z,14.43
2023-04-02T09:41:19.364Z,14.45
2023-04-02T09:44:13.399Z,15.15
2023-04-02T09:47:02.865Z,15.02
2023-04-02T09:49:47.645Z,14.48
2023-04-02T09:52:32.661Z,14.82
2023-04-02T09:55:30.428Z,15.68
2023-04-02T09:58:16.851Z,15.00
2023-04-02T10:01:01.614Z,17.13
2023-04-02T10:03:47.055Z,17.30
2023-04-02T10:06:33.822Z,12.90
2023-04-02T10:09:28.326Z,14.52
2023-04-02T10:12:14.880Z,17.42
2023-04-02T10:15:02.596Z,15.68
2023-04-02T10:18:02.015Z,16.33
2023-04-02T10:20:51.501Z,16.20
2023-04-02T10:23:36.719Z,17.25
2023-04-02T10:26:47.802Z,16.17
2023-04-02T10:30:02.046Z,14.00
2023-04-02T10:33:01.177Z,17.42
2023-04-02T10:36:04.273Z,15.45
2023-04-02T10:39:05.521Z,13.48
2023-04-02T10:42:03.086Z,12.80
2023-04-02T10:44:57.525Z,12.10
2023-04-02T10:48:00.019Z,10.90
2023-04-02T10:50:58.576Z,8.18
2023-04-02T10:53:56.283Z,9.25
2023-04-02T10:56:50.531Z,12.40
2023-04-02T10:59:41.658Z,10.20
2023-04-02T11:02:31.228Z,10.35
2023-04-02T11:05:42.716Z,16.20
2023-04-02T11:08:45.206Z,14.23
2023-04-02T11:11:38.142Z,14.90
2023-04-02T11:14:26.786Z,13.25
2023-04-02T11:17:14.510Z,13.48
2023-04-02T11:20:38.420Z,13.65
2023-04-02T11:23:27.275Z,11.25
2023-04-02T11:26:31.151Z,11.38
2023-04-02T11:29:28.803Z,12.80
2023-04-02T11:32:16.410Z,13.48
2023-04-02T11:35:07.424Z,10.32
2023-04-02T11:37:55.076Z,13.00
2023-04-02T11:40:44.860Z,11.93
2023-04-02T11:43:32.751Z,10.73
2023-04-02T11:46:30.280Z,8.90
2023-04-02T11:49:35.426Z,10.75
2023-04-02T11:52:26.553Z,14.40
2023-04-02T11:55:26.737Z,13.43
2023-04-02T11:58:37.347Z,12.63
2023-04-02T12:01:31.999Z,11.88
2023-04-02T12:04:27.722Z,11.45
2023-04-02T12:07:38.076Z,10.50
2023-04-02T12:10:27.920Z,11.30
2023-04-02T12:13:40.746Z,10.27
2023-04-02T12:16:32.451Z,11.02
2023-04-02T12:19:17.595Z,10.98
2023-04-02T12:22:02.388Z,13.10
2023-04-02T12:24:48.871Z,11.85
2023-04-02T12:27:37.593Z,11.60
2023-04-02T12:30:24.040Z,11.15
2023-04-02T12:33:33.172Z,11.55
2023-04-02T12:39:16.503Z,11.48
2023-04-02T12:42:01.154Z,10.80
2023-04-02T12:44:49.033Z,9.15
2023-04-02T12:47:34.039Z,10.98
2023-04-02T12:50:20.512Z,9.05
2023-04-02T12:53:23.377Z,7.35
2023-04-02T12:56:18.876Z,8.80
2023-04-02T12:59:03.737Z,9.93
2023-04-02T13:01:58.327Z,10.80
2023-04-02T13:04:50.958Z,9.65
2023-04-02T13:07:35.623Z,8.35
2023-04-02T13:10:26.906Z,8.93
2023-04-02T13:13:17.515Z,10.50
2023-04-02T13:16:14.868Z,10.95
2023-04-02T13:19:11.053Z,9.80
2023-04-02T13:21:59.263Z,12.68
2023-04-02T13:24:43.842Z,11.23
2023-04-02T13:27:28.728Z,12.20
2023-04-02T13:30:21.667Z,11.27
2023-04-02T13:33:07.163Z,10.43
2023-04-02T13:35:52.487Z,12.35
2023-04-02T13:38:37.302Z,13.13
2023-04-02T13:41:36.175Z,12.30
2023-04-02T13:44:26.776Z,11.65
2023-04-02T13:47:14.205Z,15.88
2023-04-02T13:49:58.948Z,21.50
2023-04-02T13:52:44.423Z,24.00
2023-04-02T13:55:34.896Z,26.85
2023-04-02T14:01:05.373Z,24.25
2023-04-02T14:03:51.243Z,24.20
2023-04-02T14:06:58.053Z,26.02
2023-04-02T14:10:03.910Z,24.55
2023-04-02T14:13:10.541Z,29.67
2023-04-02T14:16:23.056Z,28.15
2023-04-02T14:19:35.246Z,26.00
2023-04-02T14:22:23.110Z,33.60
2023-04-02T14:25:35.507Z,32.63
2023-04-02T14:28:44.759Z,28.83
2023-04-02T14:31:50.384Z,24.35
2023-04-02T14:34:35.124Z,26.30
2023-04-02T14:37:29.779Z,28.13
2023-04-02T14:40:38.235Z,25.70
2023-04-02T14:43:29.531Z,33.08
2023-04-02T14:46:14.581Z,34.92
2023-04-02T14:49:08.489Z,32.28
2023-04-02T14:51:56.039Z,30.30
2023-04-02T14:55:03.751Z,23.27
2023-04-02T14:57:52.920Z,21.63
2023-04-02T15:00:43.268Z,22.20
2023-04-02T15:03:36.879Z,20.23
2023-04-02T15:06:31.267Z,22.23
2023-04-02T15:09:23.402Z,22.00
2023-04-02T15:12:23.123Z,24.58
2023-04-02T15:15:26.829Z,28.20
2023-04-02T15:18:18.553Z,27.27
2023-04-02T15:21:18.480Z,23.65
2023-04-02T15:24:18.334Z,33.80
2023-04-02T15:27:25.193Z,39.47
2023-04-02T15:30:22.868Z,41.60
2023-04-02T15:33:20.072Z,34.95
2023-04-02T15:36:21.146Z,32.08
2023-04-02T15:39:47.529Z,35.40
2023-04-02T15:42:41.589Z,30.80
2023-04-02T15:45:58.624Z,21.02
2023-04-02T15:48:52.569Z,12.43
2023-04-02T15:52:07.165Z,11.45
2023-04-02T15:55:30.764Z,9.25
2023-04-02T15:58:24.200Z,9.07
2023-04-02T16:01:34.237Z,9.20
2023-04-02T16:04:27.771Z,10.13
2023-04-02T16:07:29.761Z,11.88
2023-04-02T16:10:41.956Z,8.65
2023-04-02T16:13:36.276Z,11.13
2023-04-02T16:16:33.999Z,11.25
2023-04-02T16:19:22.870Z,10.68
2023-04-02T16:22:27.784Z,9.20
2023-04-02T16:25:22.376Z,9.90
2023-04-02T16:28:30.491Z,11.70
2023-04-02T16:31:45.580Z,11.88
2023-04-02T16:34:49.054Z,12.20
2023-04-02T16:37:48.155Z,10.00
2023-04-02T16:40:41.880Z,12.60
2023-04-02T16:43:33.310Z,11.05
2023-04-02T16:46:39.867Z,13.20
2023-04-02T16:49:35.868Z,14.93
2023-04-02T16:52:49.286Z,16.17
2023-04-02T16:55:40.207Z,16.55
2023-04-02T16:58:43.105Z,18.23
2023-04-02T17:01:51.396Z,18.85
2023-04-02T17:04:45.658Z,23.83
2023-04-02T17:07:33.942Z,20.88
2023-04-02T17:10:22.823Z,21.17
2023-04-02T17:13:43.237Z,20.85
2023-04-02T17:16:36.308Z,23.48
2023-04-02T17:19:25.299Z,26.83
2023-04-02T17:22:16.628Z,25.70
2023-04-02T17:25:03.835Z,27.88
2023-04-02T17:27:52.628Z,27.35
2023-04-02T17:30:48.842Z,26.13
2023-04-02T17:33:33.372Z,25.95
2023-04-02T17:36:59.551Z,27.98
2023-04-02T17:40:22.508Z,26.48
2023-04-02T17:43:31.803Z,26.27
2023-04-02T17:46:40.725Z,27.02
2023-04-02T17:50:23.465Z,28.70
2023-04-02T17:53:27.721Z,27.85
2023-04-02T17:56:37.134Z,25.75
2023-04-02T17:59:28.699Z,23.95
2023-04-02T18:02:38.239Z,29.08
2023-04-02T18:05:31.383Z,24.77
2023-04-02T18:08:48.941Z,26.30
2023-04-02T18:11:53.163Z,29.65
2023-04-02T18:14:47.165Z,29.35
2023-04-02T18:17:47.152Z,29.10
2023-04-02T18:20:39.165Z,30.08
2023-04-02T18:23:52.992Z,30.60
2023-04-02T18:26:49.727Z,30.60
2023-04-02T18:30:02.046Z,31.02
2023-04-02T18:33:02.510Z,31.90
2023-04-02T18:35:59.071Z,32.33
2023-04-02T18:38:53.446Z,32.45
2023-04-02T18:41:44.445Z,33.70
2023-04-02T18:44:49.668Z,33.63
2023-04-02T18:47:57.569Z,33.28
2023-04-02T18:50:46.172Z,32.78
2023-04-02T18:53:32.066Z,35.30
2023-04-02T18:56:19.655Z,33.05
2023-04-02T18:59:52.496Z,33.13
2023-04-02T19:02:56.278Z,34.15
2023-04-02T19:05:48.933Z,35.10
2023-04-02T19:08:39.357Z,35.38
2023-04-02T19:11:28.806Z,32.78
2023-04-02T19:14:17.169Z,32.53
2023-04-02T19:17:24.372Z,33.65
2023-04-02T19:20:29.868Z,31.25
2023-04-02T19:23:27.046Z,34.75
2023-04-02T19:26:22.102Z,33.10
2023-04-02T19:29:16.060Z,32.97
2023-04-02T19:32:18.873Z,32.90
2023-04-02T19:35:22.277Z,35.22
2023-04-02T19:38:28.122Z,32.80
2023-04-02T19:41:33.164Z,36.05
2023-04-02T19:44:18.283Z,36.67
2023-04-02T19:47:03.666Z,31.25
2023-04-02T19:49:48.838Z,34.40
2023-04-02T19:52:33.693Z,33.05
2023-04-02T19:55:18.678Z,28.48
2023-04-02T19:58:13.170Z,28.83
2023-04-02T20:01:04.603Z,26.17
2023-04-02T20:03:49.918Z,25.95
2023-04-02T20:06:35.244Z,23.90
2023-04-02T20:09:21.171Z,24.13
2023-04-02T20:12:05.987Z,25.90
2023-04-02T20:14:50.829Z,23.25
2023-04-02T20:17:36.071Z,22.85
2023-04-02T20:20:20.572Z,21.55
2023-04-02T20:23:05.783Z,22.48
2023-04-02T20:25:54.422Z,25.63
2023-04-02T20:28:39.798Z,20.30
2023-04-02T20:31:25.007Z,23.90
2023-04-02T20:34:10.142Z,21.55
2023-04-02T20:36:55.177Z,22.15
2023-04-02T20:39:40.303Z,24.13
2023-04-02T20:42:25.892Z,22.45
2023-04-02T20:45:10.942Z,22.70
2023-04-02T20:47:56.104Z,25.98
2023-04-02T20:50:42.424Z,23.05
2023-04-02T20:53:33.041Z,24.02
2023-04-02T20:56:18.840Z,24.50
2023-04-02T20:59:03.766Z,25.45
2023-04-02T21:01:48.158Z,22.75
2023-04-02T21:07:17.069Z,28.35
2023-04-02T21:10:02.046Z,25.73
2023-04-02T21:12:46.995Z,23.00
2023-04-02T21:15:33.045Z,26.42
2023-04-02T21:18:17.690Z,23.50
2023-04-02T21:21:05.240Z,25.98
2023-04-02T21:23:58.773Z,25.80
2023-04-02T21:26:45.932Z,23.52
2023-04-02T21:29:30.960Z,25.20
2023-04-02T21:32:21.403Z,25.77
2023-04-02T21:35:08.366Z,22.13
2023-04-02T21:37:53.372Z,24.27
2023-04-02T21:40:38.452Z,21.52
2023-04-02T21:43:23.162Z,25.05
2023-04-02T21:48:53.944Z,24.90
2023-04-02T21:51:40.214Z,25.55
2023-04-02T21:54:24.917Z,25.05
2023-04-02T21:57:10.250Z,23.35
2023-04-02T21:59:56.266Z,24.05
2023-04-02T22:02:41.026Z,23.08
2023-04-02T22:05:28.294Z,19.80
2023-04-02T22:08:13.583Z,22.77
2023-04-02T22:11:04.805Z,20.00
2023-04-02T22:13:50.543Z,22.35
2023-04-02T22:16:36.008Z,23.13
2023-04-02T22:19:21.501Z,21.90
2023-04-02T22:22:06.131Z,26.42
2023-04-02T22:27:35.515Z,22.25
2023-04-02T22:30:20.419Z,26.15
2023-04-02T22:33:05.485Z,29.15
2023-04-02T22:35:51.486Z,37.30
2023-04-02T22:38:36.342Z,33.60
2023-04-02T22:41:26.782Z,31.67
2023-04-02T22:44:15.258Z,31.30
2023-04-02T22:47:00.194Z,29.95
2023-04-02T22:49:45.022Z,29.67
2023-04-02T22:52:29.969Z,30.63
2023-04-02T22:55:15.015Z,30.13
2023-04-02T22:58:00.200Z,28.75
2023-04-02T23:00:45.791Z,26.50
2023-04-02T23:03:30.475Z,29.25
2023-04-02T23:06:17.464Z,29.67
2023-04-02T23:09:02.291Z,28.33
2023-04-02T23:11:47.139Z,35.50
2023-04-02T23:14:32.303Z,25.58
2023-04-02T23:17:17.266Z,26.38
2023-04-02T23:20:01.732Z,22.90
2023-04-02T23:25:30.861Z,24.67
2023-04-02T23:28:16.088Z,26.40
2023-04-02T23:31:02.716Z,24.40
2023-04-02T23:33:48.167Z,20.80
2023-04-02T23:36:34.263Z,18.58
2023-04-02T23:39:19.788Z,15.40
2023-04-02T23:42:05.106Z,16.95
2023-04-02T23:44:49.884Z,15.98
2023-04-02T23:47:34.561Z,15.77
2023-04-02T23:50:19.299Z,19.30
2023-04-02T23:53:04.237Z,17.88
2023-04-02T23:55:49.178Z,17.20
2023-04-02T23:58:35.229Z,15.52
